Cleveland, Ohio
Traffic Map
Current Weather Conditions
Cleveland, Ohio
Overcast Light Rain
Overcast
67°
Feels Like: 67°
Wind Chill: 67° Ceiling: 3700
Heat Index: 67° Visibility: 10mi
Dew Point: 57° Wind: 5mph
Humidity: 70% Direction: 130° (SE)
Pressure: 29.97in Gusts: 0mph
Raw Report DataKBKL 240853Z 13004KT 10SM -RA BKN037 OVC055 19/14 A2997 RMK AO2 SLP147 P0000 60000 T01940139 53004
Traffic Incident Summary
Active as of:
Severity:
Category:
InformationThere was an issue retrieving the traffic information for this location. Please try a different location or try again shortly.
Advertisements